Terminal Aerodrome Forecast
Issued by NWS

Home | Current Version | Previous Version | Text Only | Print | Product List | Glossary On
Versions: 1 2 3 4 5 6 7 8 9 10 11 12 13 14 15 16 17
000
FTUS44 KLZK 311100 CCA
TAFHRO
TAF COR
KHRO 311137Z 3112/0112 34008G15KT P6SM SCT035 OVC050
     FM311400 35014G22KT P6SM SCT020 BKN050
      TEMPO 3114/3118 BKN020
     FM010000 01006KT P6SM SKC=

USA.gov is the U.S. government's official web portal to all federal, state and local government web resources and services.